This is the latest recevied weather packets stored in our database for station/object SV9TNF-51. If no packets are shown the sender has not sent any weather packets the latest 10 day(s).
| Time | Temp. | Humidity | Pressure | Rain* | Wind** | Luminosity | Snow |
|---|---|---|---|---|---|---|---|
| 1787827891 | 33.33° C | 49% | 1012.5 hPa | 0 mm | 8.05 m/s, 337° | - | - |
| 1787827591 | 33.33° C | 48% | 1012.5 hPa | 0 mm | 12.07 m/s, 312° | - | - |
| 1787827290 | 33.89° C | 46% | 1012.5 hPa | 0 mm | 8.05 m/s, 0° | - | - |
| 1787826991 | 33.33° C | 47% | 1012.5 hPa | 0 mm | 10.73 m/s, 317° | - | - |
| 1787826690 | 34.44° C | 48% | 1012.5 hPa | 0 mm | 0.89 m/s, 169° | - | - |
| 1787826390 | 33.33° C | 49% | 1012.5 hPa | 0 mm | 10.28 m/s, 345° | - | - |
| 1787826090 | 33.33° C | 50% | 1012.5 hPa | 0 mm | 8.49 m/s, 326° | - | - |
| 1787825790 | 34.44° C | 45% | 1012.5 hPa | 0 mm | 4.92 m/s, 284° | - | - |
| 1787825490 | 34.44° C | 45% | 1012.5 hPa | 0 mm | 7.15 m/s, 320° | - | - |
| 1787825190 | 34.44° C | 47% | 1012.5 hPa | 0 mm | 5.81 m/s, 129° | - | - |
| 1787824890 | 35° C | 47% | 1012.5 hPa | 0 mm | 2.68 m/s, 131° | - | - |
| 1787824594 | 35° C | 47% | 1012.5 hPa | 0 mm | 2.68 m/s, 114° | - | - |
| 1787824289 | 33.89° C | 49% | 1012.5 hPa | 0 mm | 4.92 m/s, 100° | - | - |
| 1787823989 | 34.44° C | 47% | 1012.5 hPa | 0 mm | 5.36 m/s, 347° | - | - |
| 1787823690 | 33.33° C | 48% | 1012.5 hPa | 0 mm | 10.28 m/s, 344° | - | - |
| 1787823389 | 33.89° C | 48% | 1012.5 hPa | 0 mm | 4.92 m/s, 129° | - | - |
| 1787823089 | 33.33° C | 50% | 1012.5 hPa | 0 mm | 8.05 m/s, 9° | - | - |
| 1787822789 | 33.33° C | 49% | 1012.5 hPa | 0 mm | 10.28 m/s, 326° | - | - |
| 1787822489 | 33.33° C | 49% | 1012.5 hPa | 0 mm | 3.13 m/s, 138° | - | - |
| 1787822189 | 32.78° C | 49% | 1012.5 hPa | 0 mm | 9.83 m/s, 23° | - | - |
| 1787821889 | 32.78° C | 52% | 1012.5 hPa | 0 mm | 9.83 m/s, 94° | - | - |
| 1787821589 | 33.33° C | 49% | 1012.5 hPa | 0 mm | 6.26 m/s, 326° | - | - |
| 1787821289 | 32.78° C | 50% | 1012.5 hPa | 0 mm | 11.62 m/s, 358° | - | - |
| 1787820989 | 33.33° C | 49% | 1012.2 hPa | 0 mm | 8.49 m/s, 335° | - | - |
| 1787820689 | 33.33° C | 49% | 1012.2 hPa | 0 mm | 8.05 m/s, 326° | - | - |
* Rain latest hour (hover to see other rain measurements)
** Current wind speed in m/s (hover to see current wind gust speed)